sensor_id;sensor_type;location;lat;lon;timestamp;temperature;humidity
56103;DHT22;41970;48.774;9.280;2023-04-24T00:00:34;12.80;99.90
56103;DHT22;41970;48.774;9.280;2023-04-24T00:02:59;12.90;99.90
56103;DHT22;41970;48.774;9.280;2023-04-24T00:05:25;12.90;99.90
56103;DHT22;41970;48.774;9.280;2023-04-24T00:07:51;12.80;99.90
56103;DHT22;41970;48.774;9.280;2023-04-24T00:10:20;12.80;99.90
56103;DHT22;41970;48.774;9.280;2023-04-24T00:12:46;12.70;99.90
56103;DHT22;41970;48.774;9.280;2023-04-24T00:15:12;12.60;99.90
56103;DHT22;41970;48.774;9.280;2023-04-24T00:17:38;12.60;99.90
56103;DHT22;41970;48.774;9.280;2023-04-24T00:20:04;12.60;99.90
56103;DHT22;41970;48.774;9.280;2023-04-24T00:22:32;12.70;99.90
56103;DHT22;41970;48.774;9.280;2023-04-24T00:24:58;12.80;99.90
56103;DHT22;41970;48.774;9.280;2023-04-24T00:27:24;12.80;99.90
56103;DHT22;41970;48.774;9.280;2023-04-24T00:29:50;12.80;99.90
56103;DHT22;41970;48.774;9.280;2023-04-24T00:32:15;12.90;99.90
56103;DHT22;41970;48.774;9.280;2023-04-24T00:34:41;12.80;99.90
56103;DHT22;41970;48.774;9.280;2023-04-24T00:37:07;12.90;99.90
56103;DHT22;41970;48.774;9.280;2023-04-24T00:39:33;12.90;99.90
56103;DHT22;41970;48.774;9.280;2023-04-24T00:41:59;13.00;99.90
56103;DHT22;41970;48.774;9.280;2023-04-24T00:44:25;13.00;99.90
56103;DHT22;41970;48.774;9.280;2023-04-24T00:46:51;13.00;99.90
56103;DHT22;41970;48.774;9.280;2023-04-24T00:49:20;13.10;99.90
56103;DHT22;41970;48.774;9.280;2023-04-24T00:51:46;13.00;99.90
56103;DHT22;41970;48.774;9.280;2023-04-24T00:54:16;12.90;99.90
56103;DHT22;41970;48.774;9.280;2023-04-24T00:56:42;12.90;99.90
56103;DHT22;41970;48.774;9.280;2023-04-24T00:59:09;13.00;99.90
56103;DHT22;41970;48.774;9.280;2023-04-24T01:01:35;13.00;99.90
56103;DHT22;41970;48.774;9.280;2023-04-24T01:04:01;13.00;99.90
56103;DHT22;41970;48.774;9.280;2023-04-24T01:06:28;13.00;99.90
56103;DHT22;41970;48.774;9.280;2023-04-24T01:08:57;12.90;99.90
56103;DHT22;41970;48.774;9.280;2023-04-24T01:11:24;12.70;99.90
56103;DHT22;41970;48.774;9.280;2023-04-24T01:13:51;12.60;99.90
56103;DHT22;41970;48.774;9.280;2023-04-24T01:16:17;12.60;99.90
56103;DHT22;41970;48.774;9.280;2023-04-24T01:18:46;12.70;99.90
56103;DHT22;41970;48.774;9.280;2023-04-24T01:21:13;12.80;99.90
56103;DHT22;41970;48.774;9.280;2023-04-24T01:23:40;12.90;99.90
56103;DHT22;41970;48.774;9.280;2023-04-24T01:26:06;13.00;99.90
56103;DHT22;41970;48.774;9.280;2023-04-24T01:28:32;13.10;99.90
56103;DHT22;41970;48.774;9.280;2023-04-24T01:30:58;13.10;99.90
56103;DHT22;41970;48.774;9.280;2023-04-24T01:33:24;13.10;99.90
56103;DHT22;41970;48.774;9.280;2023-04-24T01:35:50;13.20;99.90
56103;DHT22;41970;48.774;9.280;2023-04-24T01:38:16;13.30;99.90
56103;DHT22;41970;48.774;9.280;2023-04-24T01:40:42;13.30;99.90
56103;DHT22;41970;48.774;9.280;2023-04-24T01:43:08;13.30;99.90
56103;DHT22;41970;48.774;9.280;2023-04-24T01:45:33;13.30;99.90
56103;DHT22;41970;48.774;9.280;2023-04-24T01:48:00;13.30;99.90
56103;DHT22;41970;48.774;9.280;2023-04-24T01:50:26;13.20;99.90
56103;DHT22;41970;48.774;9.280;2023-04-24T01:52:51;13.10;99.90
56103;DHT22;41970;48.774;9.280;2023-04-24T01:55:17;13.20;99.90
56103;DHT22;41970;48.774;9.280;2023-04-24T01:57:43;13.10;99.90
56103;DHT22;41970;48.774;9.280;2023-04-24T02:00:09;13.00;99.90
56103;DHT22;41970;48.774;9.280;2023-04-24T02:02:38;12.70;99.90
56103;DHT22;41970;48.774;9.280;2023-04-24T02:05:06;12.70;99.90
56103;DHT22;41970;48.774;9.280;2023-04-24T02:07:32;12.70;99.90
56103;DHT22;41970;48.774;9.280;2023-04-24T02:09:58;12.80;99.90
56103;DHT22;41970;48.774;9.280;2023-04-24T02:12:24;12.80;99.90
56103;DHT22;41970;48.774;9.280;2023-04-24T02:14:50;12.90;99.90
56103;DHT22;41970;48.774;9.280;2023-04-24T02:17:16;12.90;99.90
56103;DHT22;41970;48.774;9.280;2023-04-24T02:19:42;13.00;99.90
56103;DHT22;41970;48.774;9.280;2023-04-24T02:22:08;13.00;99.90
56103;DHT22;41970;48.774;9.280;2023-04-24T02:24:33;13.00;99.90
56103;DHT22;41970;48.774;9.280;2023-04-24T02:26:59;13.10;99.90
56103;DHT22;41970;48.774;9.280;2023-04-24T02:29:25;13.10;99.90
56103;DHT22;41970;48.774;9.280;2023-04-24T02:31:51;13.10;99.90
56103;DHT22;41970;48.774;9.280;2023-04-24T02:34:17;13.10;99.90
56103;DHT22;41970;48.774;9.280;2023-04-24T02:36:42;13.10;99.90
56103;DHT22;41970;48.774;9.280;2023-04-24T02:39:08;12.80;99.90
56103;DHT22;41970;48.774;9.280;2023-04-24T02:41:34;12.70;99.90
56103;DHT22;41970;48.774;9.280;2023-04-24T02:44:00;12.60;99.90
56103;DHT22;41970;48.774;9.280;2023-04-24T02:46:26;12.70;99.90
56103;DHT22;41970;48.774;9.280;2023-04-24T02:48:52;12.70;99.90
56103;DHT22;41970;48.774;9.280;2023-04-24T02:51:18;12.80;99.90
56103;DHT22;41970;48.774;9.280;2023-04-24T02:53:43;12.80;99.90
56103;DHT22;41970;48.774;9.280;2023-04-24T02:56:09;12.90;99.90
56103;DHT22;41970;48.774;9.280;2023-04-24T02:58:37;12.90;99.90
56103;DHT22;41970;48.774;9.280;2023-04-24T03:01:04;13.00;99.90
56103;DHT22;41970;48.774;9.280;2023-04-24T03:03:30;13.00;99.90
56103;DHT22;41970;48.774;9.280;2023-04-24T03:05:56;13.00;99.90
56103;DHT22;41970;48.774;9.280;2023-04-24T03:08:22;13.10;99.90
56103;DHT22;41970;48.774;9.280;2023-04-24T03:10:48;13.10;99.90
56103;DHT22;41970;48.774;9.280;2023-04-24T03:13:16;13.00;99.90
56103;DHT22;41970;48.774;9.280;2023-04-24T03:15:42;13.00;99.90
56103;DHT22;41970;48.774;9.280;2023-04-24T03:18:07;13.00;99.90
56103;DHT22;41970;48.774;9.280;2023-04-24T03:20:33;12.90;99.90
56103;DHT22;41970;48.774;9.280;2023-04-24T03:22:59;12.80;99.90
56103;DHT22;41970;48.774;9.280;2023-04-24T03:25:25;12.90;99.90
56103;DHT22;41970;48.774;9.280;2023-04-24T03:27:51;13.00;99.90
56103;DHT22;41970;48.774;9.280;2023-04-24T03:30:17;12.90;99.90
56103;DHT22;41970;48.774;9.280;2023-04-24T03:32:43;12.90;99.90
56103;DHT22;41970;48.774;9.280;2023-04-24T03:35:09;13.00;99.90
56103;DHT22;41970;48.774;9.280;2023-04-24T03:37:35;12.90;99.90
56103;DHT22;41970;48.774;9.280;2023-04-24T03:40:01;12.70;99.90
56103;DHT22;41970;48.774;9.280;2023-04-24T03:42:27;12.70;99.90
56103;DHT22;41970;48.774;9.280;2023-04-24T03:44:53;12.80;99.90
56103;DHT22;41970;48.774;9.280;2023-04-24T03:47:19;12.80;99.90
56103;DHT22;41970;48.774;9.280;2023-04-24T03:49:47;12.70;99.90
56103;DHT22;41970;48.774;9.280;2023-04-24T03:52:13;12.40;99.90
56103;DHT22;41970;48.774;9.280;2023-04-24T03:54:39;12.20;99.90
56103;DHT22;41970;48.774;9.280;2023-04-24T03:57:04;12.10;99.90
56103;DHT22;41970;48.774;9.280;2023-04-24T03:59:31;11.90;99.90
56103;DHT22;41970;48.774;9.280;2023-04-24T04:01:56;11.80;99.90
56103;DHT22;41970;48.774;9.280;2023-04-24T04:04:22;11.70;99.90
56103;DHT22;41970;48.774;9.280;2023-04-24T04:06:48;11.70;99.90
56103;DHT22;41970;48.774;9.280;2023-04-24T04:09:14;11.70;99.90
56103;DHT22;41970;48.774;9.280;2023-04-24T04:11:40;11.70;99.90
56103;DHT22;41970;48.774;9.280;2023-04-24T04:14:06;11.60;99.90
56103;DHT22;41970;48.774;9.280;2023-04-24T04:16:32;11.70;99.90
56103;DHT22;41970;48.774;9.280;2023-04-24T04:18:57;11.80;99.90
56103;DHT22;41970;48.774;9.280;2023-04-24T04:21:24;11.70;99.90
56103;DHT22;41970;48.774;9.280;2023-04-24T04:23:50;11.70;99.90
56103;DHT22;41970;48.774;9.280;2023-04-24T04:26:15;11.80;99.90
56103;DHT22;41970;48.774;9.280;2023-04-24T04:28:41;11.90;99.90
56103;DHT22;41970;48.774;9.280;2023-04-24T04:31:07;12.00;99.90
56103;DHT22;41970;48.774;9.280;2023-04-24T04:33:33;12.10;99.90
56103;DHT22;41970;48.774;9.280;2023-04-24T04:35:59;12.30;99.90
56103;DHT22;41970;48.774;9.280;2023-04-24T04:38:26;12.40;99.90
56103;DHT22;41970;48.774;9.280;2023-04-24T04:40:55;12.40;99.90
56103;DHT22;41970;48.774;9.280;2023-04-24T04:43:24;12.40;99.90
56103;DHT22;41970;48.774;9.280;2023-04-24T04:45:51;12.30;99.90
56103;DHT22;41970;48.774;9.280;2023-04-24T04:48:17;12.10;99.90
56103;DHT22;41970;48.774;9.280;2023-04-24T04:50:44;12.20;99.90
56103;DHT22;41970;48.774;9.280;2023-04-24T04:53:09;12.20;99.90
56103;DHT22;41970;48.774;9.280;2023-04-24T04:55:36;12.10;99.90
56103;DHT22;41970;48.774;9.280;2023-04-24T04:58:02;12.20;99.90
56103;DHT22;41970;48.774;9.280;2023-04-24T05:00:28;12.20;99.90
56103;DHT22;41970;48.774;9.280;2023-04-24T05:02:59;12.20;99.90
56103;DHT22;41970;48.774;9.280;2023-04-24T05:05:25;12.00;99.90
56103;DHT22;41970;48.774;9.280;2023-04-24T05:07:50;11.90;99.90
56103;DHT22;41970;48.774;9.280;2023-04-24T05:10:16;11.80;99.90
56103;DHT22;41970;48.774;9.280;2023-04-24T05:12:42;11.90;99.90
56103;DHT22;41970;48.774;9.280;2023-04-24T05:15:08;11.90;99.90
56103;DHT22;41970;48.774;9.280;2023-04-24T05:17:34;11.90;99.90
56103;DHT22;41970;48.774;9.280;2023-04-24T05:19:59;11.90;99.90
56103;DHT22;41970;48.774;9.280;2023-04-24T05:22:26;12.00;99.90
56103;DHT22;41970;48.774;9.280;2023-04-24T05:24:51;12.00;99.90
56103;DHT22;41970;48.774;9.280;2023-04-24T05:27:17;12.00;99.90
56103;DHT22;41970;48.774;9.280;2023-04-24T05:29:43;12.00;99.90
56103;DHT22;41970;48.774;9.280;2023-04-24T05:32:09;12.00;99.90
56103;DHT22;41970;48.774;9.280;2023-04-24T05:34:35;11.90;99.90
56103;DHT22;41970;48.774;9.280;2023-04-24T05:37:00;11.90;99.90
56103;DHT22;41970;48.774;9.280;2023-04-24T05:39:26;11.90;99.90
56103;DHT22;41970;48.774;9.280;2023-04-24T05:41:52;11.90;99.90
56103;DHT22;41970;48.774;9.280;2023-04-24T05:44:18;12.00;99.90
56103;DHT22;41970;48.774;9.280;2023-04-24T05:46:44;11.90;99.90
56103;DHT22;41970;48.774;9.280;2023-04-24T05:49:09;12.00;99.90
56103;DHT22;41970;48.774;9.280;2023-04-24T05:51:35;11.90;99.90
56103;DHT22;41970;48.774;9.280;2023-04-24T05:54:01;11.80;99.90
56103;DHT22;41970;48.774;9.280;2023-04-24T05:56:28;11.60;99.90
56103;DHT22;41970;48.774;9.280;2023-04-24T05:58:54;11.70;99.90
56103;DHT22;41970;48.774;9.280;2023-04-24T06:01:20;11.70;99.90
56103;DHT22;41970;48.774;9.280;2023-04-24T06:03:46;11.80;99.90
56103;DHT22;41970;48.774;9.280;2023-04-24T06:06:12;11.90;99.90
56103;DHT22;41970;48.774;9.280;2023-04-24T06:08:38;11.90;99.90
56103;DHT22;41970;48.774;9.280;2023-04-24T06:11:04;12.00;99.90
56103;DHT22;41970;48.774;9.280;2023-04-24T06:13:30;12.00;99.90
56103;DHT22;41970;48.774;9.280;2023-04-24T06:15:55;12.10;99.90
56103;DHT22;41970;48.774;9.280;2023-04-24T06:18:21;12.00;99.90
56103;DHT22;41970;48.774;9.280;2023-04-24T06:20:47;12.00;99.90
56103;DHT22;41970;48.774;9.280;2023-04-24T06:23:13;12.00;99.90
56103;DHT22;41970;48.774;9.280;2023-04-24T06:25:38;12.00;99.90
56103;DHT22;41970;48.774;9.280;2023-04-24T06:28:05;12.00;99.90
56103;DHT22;41970;48.774;9.280;2023-04-24T06:30:31;12.10;99.90
56103;DHT22;41970;48.774;9.280;2023-04-24T06:32:57;12.10;99.90
56103;DHT22;41970;48.774;9.280;2023-04-24T06:35:22;12.20;99.90
56103;DHT22;41970;48.774;9.280;2023-04-24T06:37:48;12.30;99.90
56103;DHT22;41970;48.774;9.280;2023-04-24T06:40:14;12.50;99.90
56103;DHT22;41970;48.774;9.280;2023-04-24T06:42:40;12.60;99.90
56103;DHT22;41970;48.774;9.280;2023-04-24T06:45:06;12.70;99.90
56103;DHT22;41970;48.774;9.280;2023-04-24T06:47:32;12.70;99.90
56103;DHT22;41970;48.774;9.280;2023-04-24T06:49:58;12.80;99.90
56103;DHT22;41970;48.774;9.280;2023-04-24T06:52:24;12.80;99.90
56103;DHT22;41970;48.774;9.280;2023-04-24T06:54:50;12.70;99.90
56103;DHT22;41970;48.774;9.280;2023-04-24T06:57:15;12.70;99.90
56103;DHT22;41970;48.774;9.280;2023-04-24T06:59:42;12.70;99.90
56103;DHT22;41970;48.774;9.280;2023-04-24T07:02:08;12.80;99.90
56103;DHT22;41970;48.774;9.280;2023-04-24T07:04:33;12.90;99.90
56103;DHT22;41970;48.774;9.280;2023-04-24T07:06:59;12.90;99.90
56103;DHT22;41970;48.774;9.280;2023-04-24T07:09:25;12.90;99.90
56103;DHT22;41970;48.774;9.280;2023-04-24T07:11:52;12.90;99.90
56103;DHT22;41970;48.774;9.280;2023-04-24T07:14:19;13.10;99.90
56103;DHT22;41970;48.774;9.280;2023-04-24T07:16:45;13.20;99.90
56103;DHT22;41970;48.774;9.280;2023-04-24T07:19:14;13.30;99.90
56103;DHT22;41970;48.774;9.280;2023-04-24T07:21:40;13.30;99.90
56103;DHT22;41970;48.774;9.280;2023-04-24T07:24:06;13.40;99.90
56103;DHT22;41970;48.774;9.280;2023-04-24T07:26:37;13.30;99.90
56103;DHT22;41970;48.774;9.280;2023-04-24T07:29:02;13.40;99.90
56103;DHT22;41970;48.774;9.280;2023-04-24T07:31:28;13.40;99.90
56103;DHT22;41970;48.774;9.280;2023-04-24T07:33:54;13.50;99.90
56103;DHT22;41970;48.774;9.280;2023-04-24T07:36:23;13.40;99.90
56103;DHT22;41970;48.774;9.280;2023-04-24T07:38:49;13.10;99.90
56103;DHT22;41970;48.774;9.280;2023-04-24T07:41:15;12.90;99.90
56103;DHT22;41970;48.774;9.280;2023-04-24T07:43:41;12.80;99.90
56103;DHT22;41970;48.774;9.280;2023-04-24T07:46:08;12.70;99.90
56103;DHT22;41970;48.774;9.280;2023-04-24T07:48:34;12.70;99.90
56103;DHT22;41970;48.774;9.280;2023-04-24T07:51:00;12.70;99.90
56103;DHT22;41970;48.774;9.280;2023-04-24T07:53:26;12.80;99.90
56103;DHT22;41970;48.774;9.280;2023-04-24T07:55:52;13.00;99.90
56103;DHT22;41970;48.774;9.280;2023-04-24T07:58:17;13.10;99.90
56103;DHT22;41970;48.774;9.280;2023-04-24T08:00:43;13.20;99.90
56103;DHT22;41970;48.774;9.280;2023-04-24T08:03:09;13.30;99.90
56103;DHT22;41970;48.774;9.280;2023-04-24T08:05:34;13.50;99.90
56103;DHT22;41970;48.774;9.280;2023-04-24T08:08:00;13.70;99.90
56103;DHT22;41970;48.774;9.280;2023-04-24T08:10:26;13.70;99.90
56103;DHT22;41970;48.774;9.280;2023-04-24T08:12:52;13.80;99.90
56103;DHT22;41970;48.774;9.280;2023-04-24T08:15:18;13.80;99.90
56103;DHT22;41970;48.774;9.280;2023-04-24T08:17:43;13.90;99.90
56103;DHT22;41970;48.774;9.280;2023-04-24T08:20:10;13.90;99.90
56103;DHT22;41970;48.774;9.280;2023-04-24T08:22:43;13.90;99.90
56103;DHT22;41970;48.774;9.280;2023-04-24T08:25:12;13.80;99.90
56103;DHT22;41970;48.774;9.280;2023-04-24T08:27:38;13.80;99.20
56103;DHT22;41970;48.774;9.280;2023-04-24T08:30:05;13.70;99.90
56103;DHT22;41970;48.774;9.280;2023-04-24T08:32:31;13.60;99.80
56103;DHT22;41970;48.774;9.280;2023-04-24T08:34:57;13.60;99.60
56103;DHT22;41970;48.774;9.280;2023-04-24T08:37:23;13.60;99.50
56103;DHT22;41970;48.774;9.280;2023-04-24T08:39:50;13.60;98.50
56103;DHT22;41970;48.774;9.280;2023-04-24T08:42:17;13.60;99.90
56103;DHT22;41970;48.774;9.280;2023-04-24T08:44:43;13.80;99.20
56103;DHT22;41970;48.774;9.280;2023-04-24T08:47:10;13.80;98.70
56103;DHT22;41970;48.774;9.280;2023-04-24T08:49:37;13.60;99.00
56103;DHT22;41970;48.774;9.280;2023-04-24T08:52:05;13.50;99.20
56103;DHT22;41970;48.774;9.280;2023-04-24T08:54:32;13.60;99.10
56103;DHT22;41970;48.774;9.280;2023-04-24T08:57:00;13.50;98.50
56103;DHT22;41970;48.774;9.280;2023-04-24T08:59:27;13.50;99.00
56103;DHT22;41970;48.774;9.280;2023-04-24T09:01:54;13.40;99.10
56103;DHT22;41970;48.774;9.280;2023-04-24T09:04:22;13.40;99.50
56103;DHT22;41970;48.774;9.280;2023-04-24T09:06:56;13.30;98.70
56103;DHT22;41970;48.774;9.280;2023-04-24T09:09:23;13.20;99.60
56103;DHT22;41970;48.774;9.280;2023-04-24T09:11:50;13.10;98.90
56103;DHT22;41970;48.774;9.280;2023-04-24T09:14:17;13.00;99.40
56103;DHT22;41970;48.774;9.280;2023-04-24T09:16:42;12.90;99.90
56103;DHT22;41970;48.774;9.280;2023-04-24T09:19:08;12.90;99.70
56103;DHT22;41970;48.774;9.280;2023-04-24T09:21:35;12.90;99.90
56103;DHT22;41970;48.774;9.280;2023-04-24T09:24:07;13.00;99.40
56103;DHT22;41970;48.774;9.280;2023-04-24T09:26:36;12.90;99.90
56103;DHT22;41970;48.774;9.280;2023-04-24T09:29:03;12.80;99.90
56103;DHT22;41970;48.774;9.280;2023-04-24T09:31:29;12.60;99.90
56103;DHT22;41970;48.774;9.280;2023-04-24T09:33:57;12.50;99.90
56103;DHT22;41970;48.774;9.280;2023-04-24T09:36:30;12.30;99.90
56103;DHT22;41970;48.774;9.280;2023-04-24T09:39:01;12.20;99.90
56103;DHT22;41970;48.774;9.280;2023-04-24T09:41:28;12.20;99.90
56103;DHT22;41970;48.774;9.280;2023-04-24T09:43:56;12.20;99.90
56103;DHT22;41970;48.774;9.280;2023-04-24T09:46:33;12.30;99.90
56103;DHT22;41970;48.774;9.280;2023-04-24T09:49:12;12.40;99.90
56103;DHT22;41970;48.774;9.280;2023-04-24T09:51:38;12.50;99.90
56103;DHT22;41970;48.774;9.280;2023-04-24T09:54:20;12.60;99.90
56103;DHT22;41970;48.774;9.280;2023-04-24T09:56:49;12.70;99.90
56103;DHT22;41970;48.774;9.280;2023-04-24T09:59:18;12.80;99.90
56103;DHT22;41970;48.774;9.280;2023-04-24T10:01:44;12.90;99.90
56103;DHT22;41970;48.774;9.280;2023-04-24T10:04:20;13.00;99.90
56103;DHT22;41970;48.774;9.280;2023-04-24T10:06:48;13.10;99.80
56103;DHT22;41970;48.774;9.280;2023-04-24T10:09:18;13.00;99.50
56103;DHT22;41970;48.774;9.280;2023-04-24T10:11:47;12.90;99.10
56103;DHT22;41970;48.774;9.280;2023-04-24T10:14:15;12.90;99.80
56103;DHT22;41970;48.774;9.280;2023-04-24T10:16:42;12.90;98.60
56103;DHT22;41970;48.774;9.280;2023-04-24T10:19:09;12.90;98.60
56103;DHT22;41970;48.774;9.280;2023-04-24T10:21:35;12.80;97.60
56103;DHT22;41970;48.774;9.280;2023-04-24T10:24:05;12.80;96.90
56103;DHT22;41970;48.774;9.280;2023-04-24T10:26:32;12.80;96.80
56103;DHT22;41970;48.774;9.280;2023-04-24T10:28:58;12.80;96.80
56103;DHT22;41970;48.774;9.280;2023-04-24T10:31:25;12.90;97.50
56103;DHT22;41970;48.774;9.280;2023-04-24T10:33:53;13.00;96.50
56103;DHT22;41970;48.774;9.280;2023-04-24T10:36:22;13.30;97.10
56103;DHT22;41970;48.774;9.280;2023-04-24T10:38:49;13.50;95.90
56103;DHT22;41970;48.774;9.280;2023-04-24T10:41:18;13.70;94.40
56103;DHT22;41970;48.774;9.280;2023-04-24T10:43:48;13.80;94.80
56103;DHT22;41970;48.774;9.280;2023-04-24T10:46:20;13.80;94.30
56103;DHT22;41970;48.774;9.280;2023-04-24T10:48:55;13.80;93.90
56103;DHT22;41970;48.774;9.280;2023-04-24T10:51:23;13.90;92.50
56103;DHT22;41970;48.774;9.280;2023-04-24T10:53:52;13.90;93.50
56103;DHT22;41970;48.774;9.280;2023-04-24T10:56:18;13.80;93.70
56103;DHT22;41970;48.774;9.280;2023-04-24T10:58:51;13.80;93.50
56103;DHT22;41970;48.774;9.280;2023-04-24T11:01:25;13.70;92.80
56103;DHT22;41970;48.774;9.280;2023-04-24T11:03:55;13.60;93.70
56103;DHT22;41970;48.774;9.280;2023-04-24T11:06:35;13.50;94.40
56103;DHT22;41970;48.774;9.280;2023-04-24T11:09:06;13.60;95.10
56103;DHT22;41970;48.774;9.280;2023-04-24T11:11:34;13.50;95.10
56103;DHT22;41970;48.774;9.280;2023-04-24T11:14:01;13.40;95.20
56103;DHT22;41970;48.774;9.280;2023-04-24T11:19:03;13.60;94.30
56103;DHT22;41970;48.774;9.280;2023-04-24T11:21:54;13.50;95.10
56103;DHT22;41970;48.774;9.280;2023-04-24T11:24:48;13.30;95.30
56103;DHT22;41970;48.774;9.280;2023-04-24T11:27:20;13.30;95.50
56103;DHT22;41970;48.774;9.280;2023-04-24T11:37:35;13.30;95.20
56103;DHT22;41970;48.774;9.280;2023-04-24T11:40:02;13.30;95.00
56103;DHT22;41970;48.774;9.280;2023-04-24T11:42:36;13.30;95.70
56103;DHT22;41970;48.774;9.280;2023-04-24T11:45:08;13.30;95.80
56103;DHT22;41970;48.774;9.280;2023-04-24T11:47:35;13.40;94.80
56103;DHT22;41970;48.774;9.280;2023-04-24T11:50:01;13.40;95.10
56103;DHT22;41970;48.774;9.280;2023-04-24T11:52:27;13.60;95.40
56103;DHT22;41970;48.774;9.280;2023-04-24T11:54:53;13.60;95.60
56103;DHT22;41970;48.774;9.280;2023-04-24T11:57:20;13.50;95.60
56103;DHT22;41970;48.774;9.280;2023-04-24T11:59:47;13.60;95.00
56103;DHT22;41970;48.774;9.280;2023-04-24T12:02:26;13.60;94.50
56103;DHT22;41970;48.774;9.280;2023-04-24T12:04:55;13.50;94.00
56103;DHT22;41970;48.774;9.280;2023-04-24T12:07:22;13.40;95.00
56103;DHT22;41970;48.774;9.280;2023-04-24T12:09:59;13.30;95.50
56103;DHT22;41970;48.774;9.280;2023-04-24T12:12:28;13.20;94.90
56103;DHT22;41970;48.774;9.280;2023-04-24T12:14:55;13.20;94.70
56103;DHT22;41970;48.774;9.280;2023-04-24T12:17:29;13.20;95.80
56103;DHT22;41970;48.774;9.280;2023-04-24T12:20:01;13.30;95.70
56103;DHT22;41970;48.774;9.280;2023-04-24T12:22:42;13.40;95.00
56103;DHT22;41970;48.774;9.280;2023-04-24T12:25:10;13.60;95.20
56103;DHT22;41970;48.774;9.280;2023-04-24T12:27:36;13.70;94.80
56103;DHT22;41970;48.774;9.280;2023-04-24T12:30:04;13.80;93.70
56103;DHT22;41970;48.774;9.280;2023-04-24T12:32:31;14.00;94.20
56103;DHT22;41970;48.774;9.280;2023-04-24T12:34:57;13.90;94.00
56103;DHT22;41970;48.774;9.280;2023-04-24T12:37:31;13.90;93.50
56103;DHT22;41970;48.774;9.280;2023-04-24T12:40:09;13.90;94.30
56103;DHT22;41970;48.774;9.280;2023-04-24T12:42:37;13.70;93.60
56103;DHT22;41970;48.774;9.280;2023-04-24T12:45:07;13.70;94.70
56103;DHT22;41970;48.774;9.280;2023-04-24T12:47:34;13.70;94.80
56103;DHT22;41970;48.774;9.280;2023-04-24T12:50:00;13.60;94.40
56103;DHT22;41970;48.774;9.280;2023-04-24T12:52:28;13.60;93.60
56103;DHT22;41970;48.774;9.280;2023-04-24T12:54:55;13.40;94.20
56103;DHT22;41970;48.774;9.280;2023-04-24T12:57:22;13.40;94.90
56103;DHT22;41970;48.774;9.280;2023-04-24T12:59:48;13.40;94.60
56103;DHT22;41970;48.774;9.280;2023-04-24T13:02:14;13.40;95.20
56103;DHT22;41970;48.774;9.280;2023-04-24T13:04:44;13.30;94.90
56103;DHT22;41970;48.774;9.280;2023-04-24T13:07:11;13.30;94.60
56103;DHT22;41970;48.774;9.280;2023-04-24T13:09:38;13.30;94.40
56103;DHT22;41970;48.774;9.280;2023-04-24T13:12:04;13.40;94.30
56103;DHT22;41970;48.774;9.280;2023-04-24T13:14:31;13.40;94.60
56103;DHT22;41970;48.774;9.280;2023-04-24T13:16:57;13.30;95.20
56103;DHT22;41970;48.774;9.280;2023-04-24T13:19:27;13.20;95.90
56103;DHT22;41970;48.774;9.280;2023-04-24T13:21:55;13.30;96.80
56103;DHT22;41970;48.774;9.280;2023-04-24T13:24:24;13.20;99.40
56103;DHT22;41970;48.774;9.280;2023-04-24T13:26:51;13.30;99.90
56103;DHT22;41970;48.774;9.280;2023-04-24T13:29:17;13.30;99.90
56103;DHT22;41970;48.774;9.280;2023-04-24T13:31:43;13.20;99.90
56103;DHT22;41970;48.774;9.280;2023-04-24T13:34:09;13.20;99.90
56103;DHT22;41970;48.774;9.280;2023-04-24T13:36:34;13.20;99.90
56103;DHT22;41970;48.774;9.280;2023-04-24T13:39:05;13.20;99.90
56103;DHT22;41970;48.774;9.280;2023-04-24T13:41:32;13.30;99.90
56103;DHT22;41970;48.774;9.280;2023-04-24T13:43:58;13.40;99.90
56103;DHT22;41970;48.774;9.280;2023-04-24T13:46:24;13.50;99.90
56103;DHT22;41970;48.774;9.280;2023-04-24T13:48:50;13.60;99.90
56103;DHT22;41970;48.774;9.280;2023-04-24T13:51:16;13.50;99.20
56103;DHT22;41970;48.774;9.280;2023-04-24T13:53:42;13.40;99.00
56103;DHT22;41970;48.774;9.280;2023-04-24T13:56:07;13.20;98.60
56103;DHT22;41970;48.774;9.280;2023-04-24T13:58:35;13.20;99.50
56103;DHT22;41970;48.774;9.280;2023-04-24T14:01:02;13.10;99.90
56103;DHT22;41970;48.774;9.280;2023-04-24T14:03:29;13.00;99.90
56103;DHT22;41970;48.774;9.280;2023-04-24T14:05:56;12.80;99.90
56103;DHT22;41970;48.774;9.280;2023-04-24T14:08:21;12.70;99.90
56103;DHT22;41970;48.774;9.280;2023-04-24T14:10:47;12.40;99.90
56103;DHT22;41970;48.774;9.280;2023-04-24T14:13:13;12.20;99.90
56103;DHT22;41970;48.774;9.280;2023-04-24T14:15:39;12.20;99.90
56103;DHT22;41970;48.774;9.280;2023-04-24T14:18:05;12.10;99.90
56103;DHT22;41970;48.774;9.280;2023-04-24T14:20:32;12.30;99.90
56103;DHT22;41970;48.774;9.280;2023-04-24T14:22:58;12.40;99.90
56103;DHT22;41970;48.774;9.280;2023-04-24T14:25:25;12.40;99.90
56103;DHT22;41970;48.774;9.280;2023-04-24T14:27:51;12.40;99.90
56103;DHT22;41970;48.774;9.280;2023-04-24T14:30:17;12.60;99.90
56103;DHT22;41970;48.774;9.280;2023-04-24T14:32:43;12.60;99.90
56103;DHT22;41970;48.774;9.280;2023-04-24T14:35:09;12.60;99.90
56103;DHT22;41970;48.774;9.280;2023-04-24T14:37:35;12.70;99.90
56103;DHT22;41970;48.774;9.280;2023-04-24T14:40:02;12.70;99.90
56103;DHT22;41970;48.774;9.280;2023-04-24T14:42:28;12.80;99.90
56103;DHT22;41970;48.774;9.280;2023-04-24T14:44:54;12.80;99.90
56103;DHT22;41970;48.774;9.280;2023-04-24T14:47:20;12.80;99.90
56103;DHT22;41970;48.774;9.280;2023-04-24T14:49:49;12.80;99.90
56103;DHT22;41970;48.774;9.280;2023-04-24T14:52:15;12.80;99.90
56103;DHT22;41970;48.774;9.280;2023-04-24T14:54:42;12.80;99.90
56103;DHT22;41970;48.774;9.280;2023-04-24T14:57:08;12.80;99.90
56103;DHT22;41970;48.774;9.280;2023-04-24T14:59:34;12.90;99.90
56103;DHT22;41970;48.774;9.280;2023-04-24T15:02:00;12.90;99.90
56103;DHT22;41970;48.774;9.280;2023-04-24T15:04:27;12.90;99.90
56103;DHT22;41970;48.774;9.280;2023-04-24T15:06:54;12.90;99.90
56103;DHT22;41970;48.774;9.280;2023-04-24T15:09:21;12.90;99.90
56103;DHT22;41970;48.774;9.280;2023-04-24T15:11:48;13.00;99.90
56103;DHT22;41970;48.774;9.280;2023-04-24T15:14:14;13.10;99.90
56103;DHT22;41970;48.774;9.280;2023-04-24T15:16:40;13.10;99.90
56103;DHT22;41970;48.774;9.280;2023-04-24T15:19:06;13.20;99.90
56103;DHT22;41970;48.774;9.280;2023-04-24T15:21:32;13.30;99.90
56103;DHT22;41970;48.774;9.280;2023-04-24T15:23:58;13.30;99.90
56103;DHT22;41970;48.774;9.280;2023-04-24T15:26:24;13.30;99.90
56103;DHT22;41970;48.774;9.280;2023-04-24T15:28:53;13.30;99.90
56103;DHT22;41970;48.774;9.280;2023-04-24T15:31:19;13.20;99.60
56103;DHT22;41970;48.774;9.280;2023-04-24T15:33:45;13.20;99.00
56103;DHT22;41970;48.774;9.280;2023-04-24T15:36:11;13.10;98.80
56103;DHT22;41970;48.774;9.280;2023-04-24T15:38:37;13.10;99.80